Time;durP1;ratioP1;P1;durP2;ratioP2;P2;SDS_P1;SDS_P2;PMS_P1;PMS_P2;Temp;Humidity;BMP_temperature;BMP_pressure;BME280_temperature;BME280_humidity;BME280_pressure;Samples;Min_cycle;Max_cycle;Signal;HPM_P1;HPM_P2
2023/11/07 00:00:40;;;;;;;0.50;0.50;;;;;;;10.73;79.15;95357.00;6150964;23;20186;-84
2023/11/07 00:03:08;;;;;;;0.30;0.30;;;;;;;10.79;79.03;95362.38;6150105;23;20241;-84
2023/11/07 00:05:35;;;;;;;0.40;0.40;;;;;;;10.77;79.12;95361.78;6151019;23;20175;-84
2023/11/07 00:08:04;;;;;;;1.00;0.53;;;;;;;10.81;79.05;95358.63;6151211;23;20181;-84
2023/11/07 00:10:32;;;;;;;1.07;0.50;;;;;;;10.81;78.66;95365.56;6150631;23;20179;-84
2023/11/07 00:12:58;;;;;;;0.60;0.60;;;;;;;10.78;78.73;95368.50;6150638;23;20198;-84
2023/11/07 00:15:26;;;;;;;0.47;0.47;;;;;;;10.80;78.53;95369.09;6150859;23;20657;-84
2023/11/07 00:17:53;;;;;;;0.50;0.50;;;;;;;10.80;78.81;95375.06;6149969;23;20175;-84
2023/11/07 00:20:19;;;;;;;0.50;0.50;;;;;;;10.78;78.78;95371.06;6150864;23;20262;-84
2023/11/07 00:22:48;;;;;;;1.53;0.50;;;;;;;10.81;78.90;95381.81;6150706;23;20214;-84
2023/11/07 00:25:16;;;;;;;0.50;0.50;;;;;;;10.78;78.88;95377.00;6149811;23;20175;-84
2023/11/07 00:27:43;;;;;;;0.90;0.50;;;;;;;10.66;78.83;95379.28;6150561;23;20175;-84
2023/11/07 00:30:10;;;;;;;0.40;0.40;;;;;;;10.54;79.02;95385.91;6150929;23;20190;-84
2023/11/07 00:32:36;;;;;;;0.40;0.40;;;;;;;10.64;78.51;95370.16;6150232;23;20198;-84
2023/11/07 00:35:03;;;;;;;0.50;0.50;;;;;;;10.63;78.52;95350.53;6150245;23;20175;-84
2023/11/07 00:37:29;;;;;;;0.67;0.57;;;;;;;10.70;78.09;95351.41;6150305;23;20183;-84
2023/11/07 00:39:57;;;;;;;1.13;0.70;;;;;;;10.67;77.97;95357.72;6150763;23;20672;-84
2023/11/07 00:42:24;;;;;;;0.40;0.40;;;;;;;10.73;77.42;95341.53;6150567;23;20199;-84
2023/11/07 00:44:50;;;;;;;0.40;0.40;;;;;;;10.67;77.55;95337.13;6151063;23;20687;-84
2023/11/07 00:47:17;;;;;;;0.40;0.40;;;;;;;10.73;77.10;95333.00;6150501;23;20179;-84
2023/11/07 00:49:44;;;;;;;0.30;0.30;;;;;;;10.78;76.87;95325.50;6151186;23;20184;-84
2023/11/07 00:52:11;;;;;;;0.40;0.40;;;;;;;10.81;76.94;95332.09;6152047;23;20194;-84
2023/11/07 00:54:38;;;;;;;0.53;0.53;;;;;;;10.80;76.54;95317.59;6152316;23;20182;-84
2023/11/07 00:57:05;;;;;;;0.80;0.57;;;;;;;10.78;76.86;95330.66;6152825;23;20179;-84
2023/11/07 00:59:32;;;;;;;0.40;0.37;;;;;;;10.81;76.68;95326.94;6152712;23;20179;-84
2023/11/07 01:01:58;;;;;;;0.53;0.50;;;;;;;10.81;76.59;95317.44;6152370;23;20175;-84
2023/11/07 01:04:25;;;;;;;1.50;0.40;;;;;;;10.80;76.44;95313.25;6152240;23;20241;-84
2023/11/07 01:06:52;;;;;;;0.53;0.50;;;;;;;10.83;76.24;95317.25;6151606;23;20202;-84
2023/11/07 01:09:19;;;;;;;0.37;0.33;;;;;;;10.86;76.35;95319.47;6152215;23;20175;-84
2023/11/07 01:11:48;;;;;;;0.40;0.40;;;;;;;10.85;76.23;95325.59;6152537;23;20175;-84
2023/11/07 01:14:16;;;;;;;0.43;0.43;;;;;;;10.81;76.72;95322.56;6152112;23;20195;-84
2023/11/07 01:16:43;;;;;;;0.57;0.57;;;;;;;10.85;76.62;95330.75;6152052;23;20179;-84
2023/11/07 01:19:09;;;;;;;0.67;0.50;;;;;;;10.80;76.64;95330.47;6152319;23;20179;-85
2023/11/07 01:21:36;;;;;;;0.40;0.40;;;;;;;10.70;76.75;95328.22;6152083;23;20179;-84
2023/11/07 01:24:03;;;;;;;0.60;0.50;;;;;;;10.68;76.52;95325.03;6151297;23;20251;-84
2023/11/07 01:26:30;;;;;;;0.50;0.50;;;;;;;10.58;77.29;95332.28;6152367;23;20522;-84
2023/11/07 01:28:56;;;;;;;0.50;0.50;;;;;;;10.63;77.53;95356.47;6152560;23;20179;-84
2023/11/07 01:31:25;;;;;;;0.50;0.50;;;;;;;10.54;77.15;95336.97;6151799;23;20179;-84
2023/11/07 01:33:51;;;;;;;0.50;0.50;;;;;;;10.55;77.49;95342.94;6152020;23;20203;-84
2023/11/07 01:36:17;;;;;;;0.50;0.50;;;;;;;10.55;77.56;95340.34;6151626;23;20186;-84
2023/11/07 01:38:44;;;;;;;1.70;0.40;;;;;;;10.56;77.60;95339.38;6151727;23;20171;-84
2023/11/07 01:41:10;;;;;;;0.40;0.40;;;;;;;10.48;77.47;95332.56;6152406;23;20175;-84
2023/11/07 01:43:38;;;;;;;0.70;0.50;;;;;;;10.52;77.78;95335.56;6152173;23;20637;-84
2023/11/07 01:46:06;;;;;;;0.50;0.40;;;;;;;10.51;77.88;95342.50;6152156;23;20821;-84
2023/11/07 01:48:35;;;;;;;1.37;0.60;;;;;;;10.60;77.63;95338.00;6152232;23;20179;-85
2023/11/07 01:51:03;;;;;;;0.50;0.50;;;;;;;10.64;77.29;95322.03;6152144;23;20183;-85
2023/11/07 01:53:31;;;;;;;0.40;0.40;;;;;;;10.65;77.36;95322.81;6150906;23;20710;-85
2023/11/07 01:55:58;;;;;;;0.40;0.40;;;;;;;10.63;76.89;95315.28;6151839;23;20182;-83
2023/11/07 01:58:25;;;;;;;0.60;0.60;;;;;;;10.65;76.94;95312.53;6152176;23;20206;-84
2023/11/07 02:00:53;;;;;;;0.77;0.50;;;;;;;10.65;77.08;95322.81;6152075;23;20186;-84
2023/11/07 02:03:20;;;;;;;0.50;0.50;;;;;;;10.66;76.92;95309.78;6152094;23;20200;-84
2023/11/07 02:05:48;;;;;;;0.43;0.43;;;;;;;10.63;77.17;95310.13;6152266;23;20178;-84
2023/11/07 02:08:15;;;;;;;0.43;0.43;;;;;;;10.63;77.51;95323.00;6151728;23;20175;-83
2023/11/07 02:10:41;;;;;;;0.50;0.50;;;;;;;10.65;77.33;95325.41;6152008;23;20518;-82
2023/11/07 02:13:08;;;;;;;0.40;0.40;;;;;;;10.58;77.29;95327.88;6152156;23;20222;-84
2023/11/07 02:15:37;;;;;;;0.43;0.43;;;;;;;10.55;77.04;95312.84;6151451;23;20179;-83
2023/11/07 02:18:04;;;;;;;0.50;0.50;;;;;;;10.53;76.83;95307.06;6152003;23;20179;-84
2023/11/07 02:20:31;;;;;;;0.40;0.40;;;;;;;10.58;77.03;95302.16;6151782;23;20551;-83
2023/11/07 02:23:04;;;;;;;0.50;0.50;;;;;;;10.59;77.11;95298.59;6151656;23;20195;-85
2023/11/07 02:25:32;;;;;;;0.40;0.40;;;;;;;10.55;77.02;95294.81;6152121;23;20191;-84
2023/11/07 02:28:02;;;;;;;0.50;0.50;;;;;;;10.58;76.61;95293.66;6151119;23;20650;-83
2023/11/07 02:30:28;;;;;;;0.43;0.43;;;;;;;10.60;76.40;95286.53;6154061;23;20175;-84
2023/11/07 02:32:56;;;;;;;0.60;0.60;;;;;;;10.61;76.49;95276.03;6158631;23;20198;-83
2023/11/07 02:35:23;;;;;;;0.43;0.43;;;;;;;10.59;76.51;95283.16;6159607;23;20229;-84
2023/11/07 02:37:49;;;;;;;0.50;0.50;;;;;;;10.63;76.43;95288.72;6158840;23;20185;-85
2023/11/07 02:40:16;;;;;;;0.60;0.60;;;;;;;10.63;76.36;95275.88;6159023;23;20175;-84
2023/11/07 02:42:44;;;;;;;0.60;0.50;;;;;;;10.57;76.16;95269.69;6159174;23;20194;-85
2023/11/07 02:45:11;;;;;;;0.50;0.50;;;;;;;10.61;76.49;95286.34;6159797;23;20553;-84
2023/11/07 02:47:37;;;;;;;0.50;0.50;;;;;;;10.63;76.00;95291.31;6161270;23;20179;-85
2023/11/07 02:50:05;;;;;;;0.60;0.50;;;;;;;10.57;76.05;95274.03;6161040;23;20175;-85
2023/11/07 02:52:32;;;;;;;1.33;0.50;;;;;;;10.61;76.03;95283.78;6160771;23;20199;-85
2023/11/07 02:55:00;;;;;;;0.40;0.40;;;;;;;10.52;76.24;95292.59;6161353;23;20167;-85
2023/11/07 02:57:26;;;;;;;0.50;0.40;;;;;;;10.46;76.79;95290.75;6160399;23;20206;-85
2023/11/07 02:59:54;;;;;;;0.40;0.40;;;;;;;10.48;76.25;95288.78;6160089;23;20189;-84
2023/11/07 03:02:20;;;;;;;0.50;0.50;;;;;;;10.55;76.23;95281.16;6160738;23;20186;-85
2023/11/07 03:04:48;;;;;;;0.40;0.40;;;;;;;10.59;76.44;95288.31;6158223;23;20229;-85
2023/11/07 03:07:14;;;;;;;0.50;0.50;;;;;;;10.60;76.20;95283.94;6158158;23;20233;-83
2023/11/07 03:09:41;;;;;;;0.40;0.40;;;;;;;10.62;75.68;95269.91;6158560;23;20178;-84
2023/11/07 03:12:10;;;;;;;0.50;0.50;;;;;;;10.61;76.00;95283.78;6157710;23;20179;-84
2023/11/07 03:14:38;;;;;;;0.83;0.50;;;;;;;10.57;75.47;95268.91;6156581;23;20186;-83
2023/11/07 03:17:06;;;;;;;0.30;0.30;;;;;;;10.59;75.55;95262.56;6157537;23;20214;-84
2023/11/07 03:19:32;;;;;;;0.30;0.30;;;;;;;10.59;75.03;95244.53;6158032;23;20185;-84
2023/11/07 03:21:59;;;;;;;0.83;0.50;;;;;;;10.64;74.64;95233.69;6158197;23;20512;-84
2023/11/07 03:24:25;;;;;;;0.40;0.40;;;;;;;10.64;74.24;95231.91;6157120;23;20201;-85
2023/11/07 03:26:52;;;;;;;0.40;0.40;;;;;;;10.63;74.21;95219.22;6158298;23;20175;-84
2023/11/07 03:29:18;;;;;;;0.50;0.40;;;;;;;10.62;73.93;95225.34;6157687;23;20179;-85
2023/11/07 03:31:45;;;;;;;0.50;0.50;;;;;;;10.57;73.39;95214.84;6157613;23;20186;-85
2023/11/07 03:34:12;;;;;;;0.50;0.50;;;;;;;10.60;73.60;95210.09;6157180;23;20703;-84
2023/11/07 03:36:39;;;;;;;0.50;0.50;;;;;;;10.64;73.52;95201.03;6157336;23;20639;-85
2023/11/07 03:39:06;;;;;;;0.50;0.50;;;;;;;10.63;73.32;95216.66;6158237;23;20194;-85
2023/11/07 03:41:32;;;;;;;0.60;0.60;;;;;;;10.55;74.83;95243.34;6157756;23;20175;-84
2023/11/07 03:43:59;;;;;;;0.43;0.43;;;;;;;10.51;75.37;95280.72;6157404;23;20191;-84
2023/11/07 03:46:25;;;;;;;0.50;0.50;;;;;;;10.47;76.17;95299.28;6157515;23;20175;-85
2023/11/07 03:48:52;;;;;;;0.47;0.47;;;;;;;10.48;76.32;95306.81;6157350;23;20523;-84
2023/11/07 03:51:20;;;;;;;0.50;0.50;;;;;;;10.44;76.44;95313.31;6157314;23;20171;-84
2023/11/07 03:53:46;;;;;;;1.27;0.50;;;;;;;10.45;76.43;95312.31;6156832;23;20207;-83
2023/11/07 03:56:13;;;;;;;0.53;0.53;;;;;;;10.48;76.28;95306.00;6157205;23;20174;-84
2023/11/07 03:58:39;;;;;;;0.60;0.60;;;;;;;10.48;75.90;95295.72;6157553;23;20174;-84
2023/11/07 04:01:06;;;;;;;0.60;0.60;;;;;;;10.52;75.85;95292.59;6158034;23;20171;-84
2023/11/07 04:03:32;;;;;;;0.50;0.50;;;;;;;10.55;75.84;95289.66;6156919;23;20226;-85
2023/11/07 04:05:59;;;;;;;0.83;0.60;;;;;;;10.59;75.61;95280.56;6157199;23;20252;-83
2023/11/07 04:08:26;;;;;;;0.50;0.50;;;;;;;10.63;75.09;95270.72;6158145;23;20197;-85
2023/11/07 04:10:53;;;;;;;1.50;0.57;;;;;;;10.57;74.53;95250.88;6157789;23;20229;-84
2023/11/07 04:13:20;;;;;;;0.60;0.60;;;;;;;10.59;74.52;95252.25;6156880;23;20202;-85
2023/11/07 04:15:46;;;;;;;0.50;0.50;;;;;;;10.63;74.57;95260.41;6157613;23;20798;-84
2023/11/07 04:18:13;;;;;;;0.60;0.50;;;;;;;10.62;74.25;95243.38;6156971;23;20175;-84
2023/11/07 04:20:41;;;;;;;0.50;0.50;;;;;;;10.63;74.11;95243.19;6157142;23;20456;-84
2023/11/07 04:23:09;;;;;;;0.50;0.50;;;;;;;10.71;74.14;95250.00;6155493;23;20198;-85
2023/11/07 04:25:37;;;;;;;0.50;0.50;;;;;;;10.76;74.15;95249.47;6158886;23;20255;-85
2023/11/07 04:28:03;;;;;;;0.90;0.50;;;;;;;10.72;73.99;95246.44;6159107;23;20566;-84
2023/11/07 04:30:30;;;;;;;0.90;0.60;;;;;;;10.72;74.24;95249.03;6159563;23;20179;-84
2023/11/07 04:32:56;;;;;;;0.50;0.50;;;;;;;10.69;74.00;95257.91;6158845;23;20409;-85
2023/11/07 04:35:23;;;;;;;0.50;0.50;;;;;;;10.64;74.59;95260.22;6157867;23;20186;-84
2023/11/07 04:37:49;;;;;;;1.30;0.70;;;;;;;10.57;74.63;95267.13;6159181;23;20182;-85
2023/11/07 04:40:18;;;;;;;0.60;0.60;;;;;;;10.48;75.06;95275.94;6158288;23;20175;-84
2023/11/07 04:42:46;;;;;;;0.73;0.67;;;;;;;10.47;75.16;95286.41;6158197;23;20198;-85
2023/11/07 04:45:13;;;;;;;0.50;0.50;;;;;;;10.46;75.01;95284.81;6158490;23;20182;-85
2023/11/07 04:47:40;;;;;;;0.70;0.50;;;;;;;10.52;75.15;95281.50;6158158;23;20175;-83
2023/11/07 04:50:08;;;;;;;0.47;0.47;;;;;;;10.56;74.74;95275.81;6157804;23;20179;-85
2023/11/07 04:52:34;;;;;;;0.50;0.50;;;;;;;10.57;74.58;95258.59;6156664;23;20207;-85
2023/11/07 04:55:01;;;;;;;1.63;0.53;;;;;;;10.58;74.55;95270.50;6157656;23;20202;-85
2023/11/07 04:57:27;;;;;;;0.60;0.60;;;;;;;10.59;74.33;95259.19;6157324;23;20175;-84
2023/11/07 04:59:55;;;;;;;0.50;0.50;;;;;;;10.63;74.36;95258.63;6157759;23;20179;-85
2023/11/07 05:02:21;;;;;;;0.60;0.60;;;;;;;10.65;74.39;95261.81;6156000;23;20729;-85
2023/11/07 05:04:48;;;;;;;0.50;0.50;;;;;;;10.66;74.33;95271.16;6155103;23;20657;-85
2023/11/07 05:07:15;;;;;;;1.03;0.50;;;;;;;10.68;74.46;95265.81;6155808;23;20186;-83
2023/11/07 05:09:41;;;;;;;0.40;0.40;;;;;;;10.71;74.03;95266.25;6155980;23;20241;-85
2023/11/07 05:12:08;;;;;;;1.13;0.60;;;;;;;10.70;74.23;95264.66;6153736;23;20210;-85
2023/11/07 05:14:34;;;;;;;0.70;0.60;;;;;;;10.68;74.02;95260.66;6156169;23;20194;-84
2023/11/07 05:17:02;;;;;;;0.60;0.60;;;;;;;10.72;74.26;95269.63;6157271;23;20329;-85
2023/11/07 05:19:28;;;;;;;0.50;0.50;;;;;;;10.63;75.25;95294.69;6156768;23;20183;-85
2023/11/07 05:21:55;;;;;;;0.60;0.60;;;;;;;10.69;75.17;95293.16;6156768;23;20185;-85
2023/11/07 05:24:23;;;;;;;0.50;0.50;;;;;;;10.72;74.96;95296.16;6155173;23;20245;-85
2023/11/07 05:26:49;;;;;;;1.43;0.60;;;;;;;10.75;74.72;95295.00;6157039;23;20202;-85
2023/11/07 05:29:16;;;;;;;0.60;0.60;;;;;;;10.73;74.45;95290.03;6156732;23;20182;-85
2023/11/07 05:31:42;;;;;;;0.60;0.60;;;;;;;10.71;74.47;95294.56;6156130;23;20238;-86
2023/11/07 05:34:10;;;;;;;0.60;0.60;;;;;;;10.70;74.43;95287.81;6156492;23;20530;-85
2023/11/07 05:36:37;;;;;;;0.60;0.60;;;;;;;10.66;74.46;95278.06;6156421;23;20175;-85
2023/11/07 05:39:03;;;;;;;0.70;0.70;;;;;;;10.66;74.71;95296.91;6157752;23;20182;-86
2023/11/07 05:41:30;;;;;;;0.60;0.60;;;;;;;10.65;75.70;95320.25;6157391;23;20186;-84
2023/11/07 05:43:56;;;;;;;2.00;0.73;;;;;;;10.59;76.97;95341.56;6156006;23;20226;-85
2023/11/07 05:46:23;;;;;;;0.70;0.70;;;;;;;10.58;77.40;95360.59;6160605;23;20518;-84
2023/11/07 05:48:51;;;;;;;1.73;0.90;;;;;;;10.53;76.92;95335.38;6158918;23;20230;-85
2023/11/07 05:51:19;;;;;;;0.77;0.77;;;;;;;10.52;76.36;95325.28;6159270;23;20282;-84
2023/11/07 05:53:45;;;;;;;1.00;0.90;;;;;;;10.51;77.14;95339.13;6158581;23;20209;-86
2023/11/07 05:56:12;;;;;;;0.80;0.80;;;;;;;10.42;77.88;95361.56;6158300;23;20185;-84
2023/11/07 05:58:38;;;;;;;0.80;0.80;;;;;;;10.44;77.47;95362.19;6158075;23;20179;-86
2023/11/07 06:01:05;;;;;;;0.90;0.90;;;;;;;10.47;77.17;95346.41;6157630;23;20179;-86
2023/11/07 06:03:32;;;;;;;1.37;0.80;;;;;;;10.53;76.20;95317.38;6158471;23;20480;-85
2023/11/07 06:05:58;;;;;;;0.90;0.80;;;;;;;10.57;76.07;95317.81;6158164;23;20178;-85
2023/11/07 06:08:26;;;;;;;0.80;0.80;;;;;;;10.52;76.64;95353.59;6158483;23;20175;-85
2023/11/07 06:10:53;;;;;;;1.43;1.10;;;;;;;10.50;76.77;95338.31;6158558;23;20175;-85
2023/11/07 06:13:19;;;;;;;2.80;1.10;;;;;;;10.47;75.98;95330.16;6156564;23;20195;-85
2023/11/07 06:15:45;;;;;;;1.30;0.90;;;;;;;10.41;76.87;95354.03;6157707;23;20198;-85
2023/11/07 06:18:12;;;;;;;1.10;0.93;;;;;;;10.43;76.34;95339.22;6157660;23;20642;-84
2023/11/07 06:20:38;;;;;;;11.97;1.60;;;;;;;10.37;79.39;95418.75;6157806;23;20179;-86
2023/11/07 06:23:05;;;;;;;10.63;8.13;;;;;;;10.44;77.81;95382.78;6156710;23;20199;-86
2023/11/07 06:25:33;;;;;;;7.87;6.70;;;;;;;10.54;76.60;95351.63;6157687;23;20175;-84
2023/11/07 06:28:00;;;;;;;12.30;9.17;;;;;;;10.57;76.55;95351.28;6156369;23;20182;-85
2023/11/07 06:30:29;;;;;;;4.07;2.90;;;;;;;10.61;75.85;95339.59;6157337;23;20183;-85
2023/11/07 06:32:56;;;;;;;1.43;1.17;;;;;;;10.64;75.44;95323.81;6156580;23;20195;-85
2023/11/07 06:35:23;;;;;;;1.10;1.00;;;;;;;10.67;74.95;95315.72;6157262;23;20195;-84
2023/11/07 06:37:49;;;;;;;1.10;1.00;;;;;;;10.71;74.61;95309.22;6158326;23;20201;-85
2023/11/07 06:40:17;;;;;;;1.10;1.00;;;;;;;10.64;75.73;95324.59;6157795;23;20182;-85
2023/11/07 06:42:45;;;;;;;2.07;1.10;;;;;;;10.68;75.42;95328.41;6157023;23;20254;-84
2023/11/07 06:45:12;;;;;;;2.83;1.10;;;;;;;10.61;76.72;95366.16;6156180;23;20218;-85
2023/11/07 06:47:41;;;;;;;1.70;1.07;;;;;;;10.61;77.71;95385.94;6154948;23;20174;-85
2023/11/07 06:50:10;;;;;;;1.57;1.10;;;;;;;10.70;76.54;95370.22;6156037;23;20180;-85
2023/11/07 06:52:42;;;;;;;1.10;1.00;;;;;;;10.74;76.59;95352.63;6154816;23;20211;-84
2023/11/07 06:55:12;;;;;;;1.93;1.30;;;;;;;10.77;76.10;95357.44;6154097;23;20217;-84
2023/11/07 06:57:40;;;;;;;1.40;1.30;;;;;;;10.87;75.41;95336.50;6155843;23;20714;-85
2023/11/07 07:00:10;;;;;;;1.97;1.50;;;;;;;10.91;74.99;95325.66;6156034;23;20203;-85
2023/11/07 07:02:36;;;;;;;2.33;1.20;;;;;;;10.94;74.74;95311.63;6155433;23;20194;-85
2023/11/07 07:05:04;;;;;;;1.23;1.10;;;;;;;10.94;75.16;95320.13;6156418;23;20202;-85
2023/11/07 07:07:30;;;;;;;1.47;1.27;;;;;;;10.96;75.92;95330.25;6154933;23;20179;-86
2023/11/07 07:09:58;;;;;;;1.83;1.40;;;;;;;10.98;75.29;95321.34;6154419;23;20181;-86
2023/11/07 07:12:24;;;;;;;1.73;1.40;;;;;;;11.04;74.88;95330.13;6154464;23;20179;-85
2023/11/07 07:14:51;;;;;;;1.20;1.10;;;;;;;11.04;74.99;95335.28;6154571;23;20678;-85
2023/11/07 07:17:19;;;;;;;1.67;1.40;;;;;;;11.10;75.12;95347.41;6153461;23;20710;-85
2023/11/07 07:19:46;;;;;;;2.67;1.47;;;;;;;11.07;74.83;95327.16;6155282;23;20175;-85
2023/11/07 07:22:14;;;;;;;1.90;1.50;;;;;;;11.04;75.13;95346.38;6154277;23;20514;-85
2023/11/07 07:24:40;;;;;;;2.00;1.40;;;;;;;11.05;75.10;95339.44;6154831;23;20175;-85
2023/11/07 07:27:11;;;;;;;1.67;1.30;;;;;;;11.00;75.02;95336.63;6155437;23;20174;-84
2023/11/07 07:29:38;;;;;;;2.90;1.30;;;;;;;10.96;74.43;95325.91;6156164;23;20166;-85
2023/11/07 07:32:10;;;;;;;1.50;1.07;;;;;;;10.98;74.83;95333.41;6155785;23;20262;-85
2023/11/07 07:34:38;;;;;;;1.20;1.10;;;;;;;10.98;75.00;95334.22;6155515;23;20186;-86
2023/11/07 07:37:06;;;;;;;1.10;0.90;;;;;;;11.06;74.90;95335.88;6155825;23;20186;-85
2023/11/07 07:39:34;;;;;;;1.13;1.00;;;;;;;11.13;74.31;95331.59;6152249;23;20193;-85
2023/11/07 07:42:08;;;;;;;1.60;1.00;;;;;;;11.21;74.19;95320.34;6152527;23;20233;-85
2023/11/07 07:44:35;;;;;;;7.90;2.07;;;;;;;11.08;76.32;95383.66;6151577;23;20561;-84
2023/11/07 07:47:02;;;;;;;2.13;1.23;;;;;;;11.12;75.33;95360.13;6153133;23;20187;-85
2023/11/07 07:49:30;;;;;;;1.33;1.20;;;;;;;11.17;74.16;95329.41;6152961;23;20190;-85
2023/11/07 07:51:59;;;;;;;1.23;1.10;;;;;;;11.24;73.76;95312.25;6152175;23;20175;-85
2023/11/07 07:54:28;;;;;;;0.97;0.80;;;;;;;11.17;73.74;95307.03;6152147;23;20199;-85
2023/11/07 07:56:56;;;;;;;1.03;1.00;;;;;;;11.19;73.96;95317.16;6152343;23;20179;-86
2023/11/07 07:59:23;;;;;;;1.57;1.00;;;;;;;11.14;74.12;95322.09;6151631;23;20179;-85
2023/11/07 08:01:55;;;;;;;2.20;0.90;;;;;;;11.14;74.17;95332.41;6151916;23;20178;-86
2023/11/07 08:04:22;;;;;;;3.73;1.20;;;;;;;11.08;74.54;95321.84;6151241;23;20217;-85
2023/11/07 08:06:49;;;;;;;1.70;1.00;;;;;;;11.14;74.92;95346.06;6150738;23;20179;-86
2023/11/07 08:09:19;;;;;;;1.23;1.07;;;;;;;11.22;74.06;95329.66;6152129;23;20182;-86
2023/11/07 08:11:45;;;;;;;2.03;1.00;;;;;;;11.27;74.00;95329.91;6151312;23;20179;-85
2023/11/07 08:14:12;;;;;;;2.40;0.80;;;;;;;11.36;74.00;95324.41;6151609;23;20234;-85
2023/11/07 08:16:38;;;;;;;1.33;1.10;;;;;;;11.32;73.66;95310.34;6152672;23;20178;-84
2023/11/07 08:19:05;;;;;;;1.37;1.10;;;;;;;11.34;73.02;95303.22;6152830;23;20174;-85
2023/11/07 08:21:31;;;;;;;1.43;1.00;;;;;;;11.38;73.07;95298.47;6151221;23;20201;-85
2023/11/07 08:23:58;;;;;;;3.00;1.13;;;;;;;11.38;73.24;95291.53;6150239;23;20679;-86
2023/11/07 08:26:35;;;;;;;1.40;1.10;;;;;;;11.42;73.24;95310.00;6150695;23;20229;-86
2023/11/07 08:29:05;;;;;;;1.20;0.97;;;;;;;11.32;73.80;95314.69;6151463;23;20205;-85
2023/11/07 08:31:32;;;;;;;1.10;0.90;;;;;;;11.30;73.73;95319.22;6152354;23;20163;-86
2023/11/07 08:33:58;;;;;;;1.30;1.00;;;;;;;11.30;74.25;95335.50;6151343;23;20194;-85
2023/11/07 08:36:27;;;;;;;1.33;1.03;;;;;;;11.38;74.10;95339.69;6151217;23;20231;-85
2023/11/07 08:38:53;;;;;;;2.70;1.03;;;;;;;11.40;73.86;95337.72;6150741;23;20229;-86
2023/11/07 08:41:23;;;;;;;0.70;0.70;;;;;;;11.43;73.63;95309.81;6151373;23;20653;-85
2023/11/07 08:43:51;;;;;;;2.17;1.00;;;;;;;11.46;73.04;95303.47;6152667;23;20198;-85
2023/11/07 08:46:19;;;;;;;1.43;1.10;;;;;;;11.53;73.10;95316.44;6153459;23;20179;-85
2023/11/07 08:48:45;;;;;;;1.37;0.90;;;;;;;11.53;73.08;95319.00;6151480;23;20189;-85
2023/11/07 08:51:14;;;;;;;1.40;1.00;;;;;;;11.53;73.46;95324.16;6153568;23;20171;-85
2023/11/07 08:53:42;;;;;;;2.00;1.00;;;;;;;11.51;73.32;95329.50;6152838;23;20257;-85
2023/11/07 08:56:08;;;;;;;3.00;1.10;;;;;;;11.53;73.74;95340.44;6152771;23;20195;-85
2023/11/07 08:58:35;;;;;;;2.20;1.10;;;;;;;11.58;73.50;95337.25;6152825;23;20175;-85
2023/11/07 09:01:04;;;;;;;1.90;1.10;;;;;;;11.62;73.50;95330.75;6152241;23;20182;-85
2023/11/07 09:03:31;;;;;;;1.20;1.10;;;;;;;11.61;73.52;95331.72;6152599;23;20222;-84
2023/11/07 09:05:57;;;;;;;1.03;1.00;;;;;;;11.67;73.19;95331.78;6154200;23;20182;-85
2023/11/07 09:08:24;;;;;;;2.37;1.03;;;;;;;11.72;72.88;95313.97;6156249;23;20190;-86
2023/11/07 09:10:50;;;;;;;2.47;1.00;;;;;;;11.75;72.60;95308.41;6158488;23;20185;-85
2023/11/07 09:13:17;;;;;;;2.27;0.97;;;;;;;11.72;72.37;95308.00;6159554;23;20198;-84
2023/11/07 09:15:43;;;;;;;2.40;1.00;;;;;;;11.65;71.64;95276.22;6159825;23;20666;-84
2023/11/07 09:18:12;;;;;;;1.50;1.00;;;;;;;11.55;71.24;95255.91;6160057;23;20163;-85
2023/11/07 09:20:38;;;;;;;1.00;1.00;;;;;;;11.56;71.23;95260.09;6160079;23;20182;-85
2023/11/07 09:23:07;;;;;;;1.10;0.90;;;;;;;11.61;71.12;95254.38;6159243;23;20234;-85
2023/11/07 09:25:33;;;;;;;1.67;0.90;;;;;;;11.63;71.23;95250.63;6157911;23;20182;-84
2023/11/07 09:28:01;;;;;;;1.23;1.03;;;;;;;11.67;70.96;95251.03;6157491;23;20194;-85
2023/11/07 09:30:28;;;;;;;2.47;1.20;;;;;;;11.70;70.65;95241.16;6158214;23;20261;-86
2023/11/07 09:32:56;;;;;;;1.27;1.10;;;;;;;11.69;70.44;95234.41;6157350;23;20195;-86
2023/11/07 09:35:27;;;;;;;1.60;1.00;;;;;;;11.69;69.85;95215.53;6156466;23;20202;-85
2023/11/07 09:37:54;;;;;;;1.10;0.93;;;;;;;11.74;69.95;95213.97;6157653;23;20183;-85
2023/11/07 09:40:23;;;;;;;2.43;0.90;;;;;;;11.76;69.67;95206.06;6157291;23;20185;-85
2023/11/07 09:42:50;;;;;;;2.67;1.00;;;;;;;11.72;68.99;95171.31;6154880;23;20245;-85
2023/11/07 09:45:18;;;;;;;1.00;0.90;;;;;;;11.73;69.39;95183.22;6155551;23;20175;-85
2023/11/07 09:47:47;;;;;;;1.20;1.10;;;;;;;11.69;69.03;95171.72;6155723;23;20631;-85
2023/11/07 09:50:16;;;;;;;1.43;1.23;;;;;;;11.79;72.37;95290.81;6157181;23;20689;-83
2023/11/07 09:52:45;;;;;;;2.40;1.00;;;;;;;11.84;69.56;95203.31;6155530;23;20260;-85
2023/11/07 09:55:15;;;;;;;2.60;1.13;;;;;;;11.90;68.29;95158.72;6155777;23;20194;-86
2023/11/07 09:57:43;;;;;;;2.10;0.90;;;;;;;11.84;67.30;95118.22;6155469;23;20163;-85
2023/11/07 10:00:13;;;;;;;0.90;0.80;;;;;;;11.94;67.78;95133.28;6156808;23;20421;-84
2023/11/07 10:02:41;;;;;;;1.53;1.00;;;;;;;11.93;67.34;95124.75;6156907;23;20226;-86
2023/11/07 10:05:09;;;;;;;2.90;1.00;;;;;;;11.96;66.88;95103.72;6156737;23;20177;-85
2023/11/07 10:07:36;;;;;;;1.23;0.77;;;;;;;12.04;66.81;95097.59;6155507;23;20183;-85
2023/11/07 10:10:05;;;;;;;2.07;1.20;;;;;;;12.13;67.00;95095.59;6156263;23;20190;-85
2023/11/07 10:12:38;;;;;;;2.27;1.10;;;;;;;12.10;66.53;95084.72;6155479;23;20175;-85
2023/11/07 10:15:18;;;;;;;1.13;0.90;;;;;;;12.06;66.31;95073.19;6155139;23;20230;-85
2023/11/07 10:17:58;;;;;;;3.50;1.70;;;;;;;12.03;65.78;95042.63;6156221;23;20179;-84
2023/11/07 10:20:25;;;;;;;0.97;0.87;;;;;;;12.08;66.02;95076.38;6157083;23;20167;-85
2023/11/07 10:22:52;;;;;;;1.10;1.00;;;;;;;11.93;65.56;95039.63;6154091;23;20251;-86
2023/11/07 10:25:29;;;;;;;0.90;0.90;;;;;;;11.87;65.44;95026.75;6154053;23;20178;-85
2023/11/07 10:27:55;;;;;;;0.87;0.80;;;;;;;11.96;65.52;95041.81;6155585;23;20175;-85
2023/11/07 10:30:22;;;;;;;1.23;0.90;;;;;;;12.05;66.14;95063.06;6154349;23;20487;-85
2023/11/07 10:32:53;;;;;;;1.17;0.80;;;;;;;11.99;65.14;95030.31;6154225;23;20203;-86
2023/11/07 10:35:21;;;;;;;1.37;0.90;;;;;;;11.86;64.97;95014.84;6154980;23;20706;-85
2023/11/07 10:37:47;;;;;;;1.83;0.80;;;;;;;11.82;65.51;95032.50;6155849;23;20261;-85
2023/11/07 10:40:17;;;;;;;1.77;0.83;;;;;;;11.79;66.04;95060.44;6154120;23;20179;-85
2023/11/07 10:42:49;;;;;;;1.03;0.80;;;;;;;11.88;67.87;95131.50;6152528;23;20650;-85
2023/11/07 10:45:17;;;;;;;1.47;0.80;;;;;;;11.72;69.99;95212.59;6163152;23;20147;-84
2023/11/07 10:47:46;;;;;;;0.80;0.80;;;;;;;11.67;70.63;95218.31;6160853;23;20174;-85
2023/11/07 10:50:17;;;;;;;1.40;1.10;;;;;;;11.60;72.26;95281.94;6154081;23;20175;-86
2023/11/07 10:52:45;;;;;;;1.03;1.00;;;;;;;11.59;72.36;95274.38;6153415;23;20206;-85
2023/11/07 10:55:13;;;;;;;1.20;0.90;;;;;;;11.49;72.32;95273.94;6154378;23;20206;-85
2023/11/07 10:57:46;;;;;;;0.70;0.70;;;;;;;11.50;72.37;95268.59;6155863;23;20182;-85
2023/11/07 11:00:20;;;;;;;2.97;1.00;;;;;;;11.55;72.51;95271.38;6155488;23;20165;-85
2023/11/07 11:02:55;;;;;;;1.33;1.00;;;;;;;11.58;72.79;95293.44;6156043;23;20663;-85
2023/11/07 11:05:23;;;;;;;1.00;0.80;;;;;;;11.45;71.90;95252.09;6156531;23;20193;-85
2023/11/07 11:07:52;;;;;;;1.03;0.80;;;;;;;11.36;70.83;95211.00;6155875;23;20174;-87
2023/11/07 11:10:21;;;;;;;2.23;1.20;;;;;;;11.38;71.07;95214.19;6156346;23;20174;-85
2023/11/07 11:12:51;;;;;;;1.33;0.80;;;;;;;11.53;71.00;95226.97;6153566;23;20230;-85
2023/11/07 11:15:19;;;;;;;0.93;0.93;;;;;;;11.66;71.14;95237.34;6155650;23;20273;-85
2023/11/07 11:17:52;;;;;;;3.70;0.90;;;;;;;11.69;70.96;95226.66;6156763;23;20186;-85
2023/11/07 11:20:25;;;;;;;3.67;1.00;;;;;;;11.73;70.81;95214.19;6155390;23;20170;-85
2023/11/07 11:22:55;;;;;;;1.00;0.87;;;;;;;11.76;69.77;95178.50;6156664;23;20201;-85
2023/11/07 11:25:29;;;;;;;0.70;0.70;;;;;;;11.76;69.16;95160.44;6156233;23;20167;-85
2023/11/07 11:28:01;;;;;;;1.00;0.90;;;;;;;11.74;68.62;95146.09;6157846;23;20173;-86
2023/11/07 11:30:32;;;;;;;1.97;1.20;;;;;;;11.74;68.91;95143.53;6156721;23;20487;-85
2023/11/07 11:33:06;;;;;;;8.97;1.53;;;;;;;11.94;78.50;95440.31;6155178;23;20288;-81
2023/11/07 11:35:34;;;;;;;7.20;1.30;;;;;;;12.24;76.88;95397.03;6152081;23;20194;-83